sensor_id;sensor_type;location;lat;lon;timestamp;temperature;humidity
56076;DHT22;41951;49.022;12.066;2023-04-15T00:01:20;6.80;99.90
56076;DHT22;41951;49.022;12.066;2023-04-15T00:03:46;6.90;99.90
56076;DHT22;41951;49.022;12.066;2023-04-15T00:06:12;6.90;99.90
56076;DHT22;41951;49.022;12.066;2023-04-15T00:08:38;6.90;99.90
56076;DHT22;41951;49.022;12.066;2023-04-15T00:11:04;6.90;99.90
56076;DHT22;41951;49.022;12.066;2023-04-15T00:13:30;7.00;99.90
56076;DHT22;41951;49.022;12.066;2023-04-15T00:15:57;7.00;99.90
56076;DHT22;41951;49.022;12.066;2023-04-15T00:18:23;7.00;99.90
56076;DHT22;41951;49.022;12.066;2023-04-15T00:20:49;7.00;99.90
56076;DHT22;41951;49.022;12.066;2023-04-15T00:23:14;7.00;99.90
56076;DHT22;41951;49.022;12.066;2023-04-15T00:25:40;7.00;99.90
56076;DHT22;41951;49.022;12.066;2023-04-15T00:28:06;7.00;99.90
56076;DHT22;41951;49.022;12.066;2023-04-15T00:30:31;7.00;99.90
56076;DHT22;41951;49.022;12.066;2023-04-15T00:32:57;7.00;99.90
56076;DHT22;41951;49.022;12.066;2023-04-15T00:35:23;7.00;99.90
56076;DHT22;41951;49.022;12.066;2023-04-15T00:37:49;7.00;99.90
56076;DHT22;41951;49.022;12.066;2023-04-15T00:40:16;7.00;99.90
56076;DHT22;41951;49.022;12.066;2023-04-15T00:42:43;7.00;99.90
56076;DHT22;41951;49.022;12.066;2023-04-15T00:45:09;7.00;99.90
56076;DHT22;41951;49.022;12.066;2023-04-15T00:47:36;7.00;99.90
56076;DHT22;41951;49.022;12.066;2023-04-15T00:50:03;7.00;99.90
56076;DHT22;41951;49.022;12.066;2023-04-15T00:52:29;7.10;99.90
56076;DHT22;41951;49.022;12.066;2023-04-15T00:54:55;7.10;99.90
56076;DHT22;41951;49.022;12.066;2023-04-15T00:57:20;7.10;99.90
56076;DHT22;41951;49.022;12.066;2023-04-15T00:59:47;7.10;99.90
56076;DHT22;41951;49.022;12.066;2023-04-15T01:02:12;7.10;99.90
56076;DHT22;41951;49.022;12.066;2023-04-15T01:04:38;7.10;99.90
56076;DHT22;41951;49.022;12.066;2023-04-15T01:07:04;7.10;99.90
56076;DHT22;41951;49.022;12.066;2023-04-15T01:09:29;7.10;99.90
56076;DHT22;41951;49.022;12.066;2023-04-15T01:11:55;7.10;99.90
56076;DHT22;41951;49.022;12.066;2023-04-15T01:14:21;7.10;99.90
56076;DHT22;41951;49.022;12.066;2023-04-15T01:16:47;7.10;99.90
56076;DHT22;41951;49.022;12.066;2023-04-15T01:19:13;7.10;99.90
56076;DHT22;41951;49.022;12.066;2023-04-15T01:21:41;7.10;99.90
56076;DHT22;41951;49.022;12.066;2023-04-15T01:24:09;7.10;99.90
56076;DHT22;41951;49.022;12.066;2023-04-15T01:26:37;7.10;99.90
56076;DHT22;41951;49.022;12.066;2023-04-15T01:29:02;7.00;99.90
56076;DHT22;41951;49.022;12.066;2023-04-15T01:31:28;7.10;99.90
56076;DHT22;41951;49.022;12.066;2023-04-15T01:33:53;7.10;99.90
56076;DHT22;41951;49.022;12.066;2023-04-15T01:36:19;7.10;99.90
56076;DHT22;41951;49.022;12.066;2023-04-15T01:38:45;7.10;99.90
56076;DHT22;41951;49.022;12.066;2023-04-15T01:41:12;7.10;99.90
56076;DHT22;41951;49.022;12.066;2023-04-15T01:43:38;7.10;99.90
56076;DHT22;41951;49.022;12.066;2023-04-15T01:46:04;7.20;99.90
56076;DHT22;41951;49.022;12.066;2023-04-15T01:48:30;7.20;99.90
56076;DHT22;41951;49.022;12.066;2023-04-15T01:50:57;7.20;99.90
56076;DHT22;41951;49.022;12.066;2023-04-15T01:53:24;7.10;99.90
56076;DHT22;41951;49.022;12.066;2023-04-15T01:55:50;7.10;99.90
56076;DHT22;41951;49.022;12.066;2023-04-15T01:58:17;7.10;99.90
56076;DHT22;41951;49.022;12.066;2023-04-15T02:00:42;7.10;99.90
56076;DHT22;41951;49.022;12.066;2023-04-15T02:03:08;7.20;99.90
56076;DHT22;41951;49.022;12.066;2023-04-15T02:05:34;7.10;99.90
56076;DHT22;41951;49.022;12.066;2023-04-15T02:07:59;7.10;99.90
56076;DHT22;41951;49.022;12.066;2023-04-15T02:10:25;7.10;99.90
56076;DHT22;41951;49.022;12.066;2023-04-15T02:12:51;7.10;99.90
56076;DHT22;41951;49.022;12.066;2023-04-15T02:15:18;7.10;99.90
56076;DHT22;41951;49.022;12.066;2023-04-15T02:17:43;7.20;99.90
56076;DHT22;41951;49.022;12.066;2023-04-15T02:20:10;7.10;99.90
56076;DHT22;41951;49.022;12.066;2023-04-15T02:22:36;7.10;99.90
56076;DHT22;41951;49.022;12.066;2023-04-15T02:25:02;7.10;99.90
56076;DHT22;41951;49.022;12.066;2023-04-15T02:27:28;7.00;99.90
56076;DHT22;41951;49.022;12.066;2023-04-15T02:29:54;7.00;99.90
56076;DHT22;41951;49.022;12.066;2023-04-15T02:32:20;7.00;99.90
56076;DHT22;41951;49.022;12.066;2023-04-15T02:34:48;7.00;99.90
56076;DHT22;41951;49.022;12.066;2023-04-15T02:37:14;7.00;99.90
56076;DHT22;41951;49.022;12.066;2023-04-15T02:39:40;7.00;99.90
56076;DHT22;41951;49.022;12.066;2023-04-15T02:42:05;7.00;99.90
56076;DHT22;41951;49.022;12.066;2023-04-15T02:44:31;7.00;99.90
56076;DHT22;41951;49.022;12.066;2023-04-15T02:46:58;7.00;99.90
56076;DHT22;41951;49.022;12.066;2023-04-15T02:49:24;7.00;99.90
56076;DHT22;41951;49.022;12.066;2023-04-15T02:51:50;6.90;99.90
56076;DHT22;41951;49.022;12.066;2023-04-15T02:54:19;7.00;99.90
56076;DHT22;41951;49.022;12.066;2023-04-15T02:56:45;6.90;99.90
56076;DHT22;41951;49.022;12.066;2023-04-15T02:59:11;6.90;99.90
56076;DHT22;41951;49.022;12.066;2023-04-15T03:01:37;6.90;99.90
56076;DHT22;41951;49.022;12.066;2023-04-15T03:04:02;6.90;99.90
56076;DHT22;41951;49.022;12.066;2023-04-15T03:06:28;6.90;99.90
56076;DHT22;41951;49.022;12.066;2023-04-15T03:08:54;7.00;99.90
56076;DHT22;41951;49.022;12.066;2023-04-15T03:11:21;6.90;99.90
56076;DHT22;41951;49.022;12.066;2023-04-15T03:13:47;6.90;99.90
56076;DHT22;41951;49.022;12.066;2023-04-15T03:16:12;6.90;99.90
56076;DHT22;41951;49.022;12.066;2023-04-15T03:18:38;6.90;99.90
56076;DHT22;41951;49.022;12.066;2023-04-15T03:21:04;6.80;99.90
56076;DHT22;41951;49.022;12.066;2023-04-15T03:23:30;6.80;99.90
56076;DHT22;41951;49.022;12.066;2023-04-15T03:25:56;6.80;99.90
56076;DHT22;41951;49.022;12.066;2023-04-15T03:28:23;6.80;99.90
56076;DHT22;41951;49.022;12.066;2023-04-15T03:30:49;6.80;99.90
56076;DHT22;41951;49.022;12.066;2023-04-15T03:33:14;6.80;99.90
56076;DHT22;41951;49.022;12.066;2023-04-15T03:35:40;6.80;99.90
56076;DHT22;41951;49.022;12.066;2023-04-15T03:38:05;6.70;99.90
56076;DHT22;41951;49.022;12.066;2023-04-15T03:40:31;6.80;99.90
56076;DHT22;41951;49.022;12.066;2023-04-15T03:42:57;6.80;99.90
56076;DHT22;41951;49.022;12.066;2023-04-15T03:45:22;6.70;99.90
56076;DHT22;41951;49.022;12.066;2023-04-15T03:47:48;6.70;99.90
56076;DHT22;41951;49.022;12.066;2023-04-15T03:50:14;6.50;99.90
56076;DHT22;41951;49.022;12.066;2023-04-15T03:52:40;6.60;99.90
56076;DHT22;41951;49.022;12.066;2023-04-15T03:55:05;6.60;99.90
56076;DHT22;41951;49.022;12.066;2023-04-15T03:57:33;6.60;99.90
56076;DHT22;41951;49.022;12.066;2023-04-15T04:00:03;6.60;99.90
56076;DHT22;41951;49.022;12.066;2023-04-15T04:02:29;6.50;99.90
56076;DHT22;41951;49.022;12.066;2023-04-15T04:04:54;6.50;99.90
56076;DHT22;41951;49.022;12.066;2023-04-15T04:07:22;6.50;99.90
56076;DHT22;41951;49.022;12.066;2023-04-15T04:09:48;6.50;99.90
56076;DHT22;41951;49.022;12.066;2023-04-15T04:12:14;6.50;99.90
56076;DHT22;41951;49.022;12.066;2023-04-15T04:14:39;6.50;99.90
56076;DHT22;41951;49.022;12.066;2023-04-15T04:17:05;6.40;99.90
56076;DHT22;41951;49.022;12.066;2023-04-15T04:19:31;6.40;99.90
56076;DHT22;41951;49.022;12.066;2023-04-15T04:21:56;6.40;99.90
56076;DHT22;41951;49.022;12.066;2023-04-15T04:24:22;6.40;99.90
56076;DHT22;41951;49.022;12.066;2023-04-15T04:26:47;6.40;99.90
56076;DHT22;41951;49.022;12.066;2023-04-15T04:29:13;6.40;99.90
56076;DHT22;41951;49.022;12.066;2023-04-15T04:31:39;6.40;99.90
56076;DHT22;41951;49.022;12.066;2023-04-15T04:34:04;6.40;99.90
56076;DHT22;41951;49.022;12.066;2023-04-15T04:36:30;6.40;99.90
56076;DHT22;41951;49.022;12.066;2023-04-15T04:38:56;6.40;99.90
56076;DHT22;41951;49.022;12.066;2023-04-15T04:41:21;6.30;99.90
56076;DHT22;41951;49.022;12.066;2023-04-15T04:43:47;6.30;99.90
56076;DHT22;41951;49.022;12.066;2023-04-15T04:46:13;6.30;99.90
56076;DHT22;41951;49.022;12.066;2023-04-15T04:48:38;6.30;99.90
56076;DHT22;41951;49.022;12.066;2023-04-15T04:51:04;6.30;99.90
56076;DHT22;41951;49.022;12.066;2023-04-15T04:53:30;6.30;99.90
56076;DHT22;41951;49.022;12.066;2023-04-15T04:55:56;6.20;99.90
56076;DHT22;41951;49.022;12.066;2023-04-15T04:58:22;6.20;99.90
56076;DHT22;41951;49.022;12.066;2023-04-15T05:00:47;6.20;99.90
56076;DHT22;41951;49.022;12.066;2023-04-15T05:03:13;6.20;99.90
56076;DHT22;41951;49.022;12.066;2023-04-15T05:05:39;6.20;99.90
56076;DHT22;41951;49.022;12.066;2023-04-15T05:08:05;6.10;99.90
56076;DHT22;41951;49.022;12.066;2023-04-15T05:10:31;6.10;99.90
56076;DHT22;41951;49.022;12.066;2023-04-15T05:12:57;6.10;99.90
56076;DHT22;41951;49.022;12.066;2023-04-15T05:15:23;6.10;99.90
56076;DHT22;41951;49.022;12.066;2023-04-15T05:17:49;6.20;99.90
56076;DHT22;41951;49.022;12.066;2023-04-15T05:20:14;6.10;99.90
56076;DHT22;41951;49.022;12.066;2023-04-15T05:22:40;6.20;99.90
56076;DHT22;41951;49.022;12.066;2023-04-15T05:25:06;6.20;99.90
56076;DHT22;41951;49.022;12.066;2023-04-15T05:27:31;6.10;99.90
56076;DHT22;41951;49.022;12.066;2023-04-15T05:29:57;6.20;99.90
56076;DHT22;41951;49.022;12.066;2023-04-15T05:32:23;6.20;99.90
56076;DHT22;41951;49.022;12.066;2023-04-15T05:34:48;6.30;99.90
56076;DHT22;41951;49.022;12.066;2023-04-15T05:37:14;6.30;99.90
56076;DHT22;41951;49.022;12.066;2023-04-15T05:39:39;6.20;99.90
56076;DHT22;41951;49.022;12.066;2023-04-15T05:42:05;6.20;99.90
56076;DHT22;41951;49.022;12.066;2023-04-15T05:44:31;6.20;99.90
56076;DHT22;41951;49.022;12.066;2023-04-15T05:46:56;6.20;99.90
56076;DHT22;41951;49.022;12.066;2023-04-15T05:49:22;6.10;99.90
56076;DHT22;41951;49.022;12.066;2023-04-15T05:51:48;6.10;99.90
56076;DHT22;41951;49.022;12.066;2023-04-15T05:54:14;6.10;99.90
56076;DHT22;41951;49.022;12.066;2023-04-15T05:56:40;6.10;99.90
56076;DHT22;41951;49.022;12.066;2023-04-15T05:59:05;6.10;99.90
56076;DHT22;41951;49.022;12.066;2023-04-15T06:01:32;6.10;99.90
56076;DHT22;41951;49.022;12.066;2023-04-15T06:03:58;6.10;99.90
56076;DHT22;41951;49.022;12.066;2023-04-15T06:06:24;6.10;99.90
56076;DHT22;41951;49.022;12.066;2023-04-15T06:08:51;6.10;99.90
56076;DHT22;41951;49.022;12.066;2023-04-15T06:11:18;6.10;99.90
56076;DHT22;41951;49.022;12.066;2023-04-15T06:13:44;6.10;99.90
56076;DHT22;41951;49.022;12.066;2023-04-15T06:16:10;6.10;99.90
56076;DHT22;41951;49.022;12.066;2023-04-15T06:18:36;6.20;99.90
56076;DHT22;41951;49.022;12.066;2023-04-15T06:21:01;6.20;99.90
56076;DHT22;41951;49.022;12.066;2023-04-15T06:23:27;6.20;99.90
56076;DHT22;41951;49.022;12.066;2023-04-15T06:25:52;6.20;99.90
56076;DHT22;41951;49.022;12.066;2023-04-15T06:28:18;6.10;99.90
56076;DHT22;41951;49.022;12.066;2023-04-15T06:30:44;6.10;99.90
56076;DHT22;41951;49.022;12.066;2023-04-15T06:33:09;6.10;99.90
56076;DHT22;41951;49.022;12.066;2023-04-15T06:35:35;6.10;99.90
56076;DHT22;41951;49.022;12.066;2023-04-15T06:38:00;6.00;99.90
56076;DHT22;41951;49.022;12.066;2023-04-15T06:40:26;6.10;99.90
56076;DHT22;41951;49.022;12.066;2023-04-15T06:42:52;6.10;99.90
56076;DHT22;41951;49.022;12.066;2023-04-15T06:45:18;6.00;99.90
56076;DHT22;41951;49.022;12.066;2023-04-15T06:47:43;6.00;99.90
56076;DHT22;41951;49.022;12.066;2023-04-15T06:50:09;6.10;99.90
56076;DHT22;41951;49.022;12.066;2023-04-15T06:52:35;6.10;99.90
56076;DHT22;41951;49.022;12.066;2023-04-15T06:55:01;6.10;99.90
56076;DHT22;41951;49.022;12.066;2023-04-15T06:57:27;6.10;99.90
56076;DHT22;41951;49.022;12.066;2023-04-15T06:59:53;6.10;99.90
56076;DHT22;41951;49.022;12.066;2023-04-15T07:02:19;6.10;99.90
56076;DHT22;41951;49.022;12.066;2023-04-15T07:04:45;6.10;99.90
56076;DHT22;41951;49.022;12.066;2023-04-15T07:07:11;6.00;99.90
56076;DHT22;41951;49.022;12.066;2023-04-15T07:09:36;6.00;99.90
56076;DHT22;41951;49.022;12.066;2023-04-15T07:12:03;6.10;99.90
56076;DHT22;41951;49.022;12.066;2023-04-15T07:14:28;6.10;99.90
56076;DHT22;41951;49.022;12.066;2023-04-15T07:16:54;6.10;99.90
56076;DHT22;41951;49.022;12.066;2023-04-15T07:19:20;6.10;99.90
56076;DHT22;41951;49.022;12.066;2023-04-15T07:21:46;6.00;99.90
56076;DHT22;41951;49.022;12.066;2023-04-15T07:24:12;6.10;99.90
56076;DHT22;41951;49.022;12.066;2023-04-15T07:26:41;6.20;99.90
56076;DHT22;41951;49.022;12.066;2023-04-15T07:29:06;6.20;99.90
56076;DHT22;41951;49.022;12.066;2023-04-15T07:31:32;6.30;99.90
56076;DHT22;41951;49.022;12.066;2023-04-15T07:33:58;6.20;99.90
56076;DHT22;41951;49.022;12.066;2023-04-15T07:36:24;6.20;99.90
56076;DHT22;41951;49.022;12.066;2023-04-15T07:38:49;6.30;99.90
56076;DHT22;41951;49.022;12.066;2023-04-15T07:41:15;6.30;99.90
56076;DHT22;41951;49.022;12.066;2023-04-15T07:43:41;6.30;99.90
56076;DHT22;41951;49.022;12.066;2023-04-15T07:46:07;6.30;99.90
56076;DHT22;41951;49.022;12.066;2023-04-15T07:48:32;6.40;99.90
56076;DHT22;41951;49.022;12.066;2023-04-15T07:50:58;6.40;99.90
56076;DHT22;41951;49.022;12.066;2023-04-15T07:53:24;6.40;99.90
56076;DHT22;41951;49.022;12.066;2023-04-15T07:55:50;6.50;99.90
56076;DHT22;41951;49.022;12.066;2023-04-15T07:58:16;6.50;99.90
56076;DHT22;41951;49.022;12.066;2023-04-15T08:00:42;6.40;99.90
56076;DHT22;41951;49.022;12.066;2023-04-15T08:03:07;6.40;99.90
56076;DHT22;41951;49.022;12.066;2023-04-15T08:05:33;6.40;99.90
56076;DHT22;41951;49.022;12.066;2023-04-15T08:07:58;6.50;99.90
56076;DHT22;41951;49.022;12.066;2023-04-15T08:10:24;6.40;99.90
56076;DHT22;41951;49.022;12.066;2023-04-15T08:12:50;6.50;99.90
56076;DHT22;41951;49.022;12.066;2023-04-15T08:15:19;6.40;99.90
56076;DHT22;41951;49.022;12.066;2023-04-15T08:17:44;6.50;99.90
56076;DHT22;41951;49.022;12.066;2023-04-15T08:20:10;6.60;99.90
56076;DHT22;41951;49.022;12.066;2023-04-15T08:22:37;6.50;99.90
56076;DHT22;41951;49.022;12.066;2023-04-15T08:25:03;6.60;99.90
56076;DHT22;41951;49.022;12.066;2023-04-15T08:27:29;6.60;99.90
56076;DHT22;41951;49.022;12.066;2023-04-15T08:29:55;6.60;99.90
56076;DHT22;41951;49.022;12.066;2023-04-15T08:32:20;6.70;99.90
56076;DHT22;41951;49.022;12.066;2023-04-15T08:34:47;6.60;99.90
56076;DHT22;41951;49.022;12.066;2023-04-15T08:37:12;6.70;99.90
56076;DHT22;41951;49.022;12.066;2023-04-15T08:39:38;6.70;99.90
56076;DHT22;41951;49.022;12.066;2023-04-15T08:42:07;6.70;99.90
56076;DHT22;41951;49.022;12.066;2023-04-15T08:44:36;6.70;99.90
56076;DHT22;41951;49.022;12.066;2023-04-15T08:47:03;6.70;99.90
56076;DHT22;41951;49.022;12.066;2023-04-15T08:49:32;6.70;99.90
56076;DHT22;41951;49.022;12.066;2023-04-15T08:51:58;6.70;99.90
56076;DHT22;41951;49.022;12.066;2023-04-15T08:54:25;6.80;99.90
56076;DHT22;41951;49.022;12.066;2023-04-15T08:56:51;6.80;99.90
56076;DHT22;41951;49.022;12.066;2023-04-15T08:59:19;6.90;99.90
56076;DHT22;41951;49.022;12.066;2023-04-15T09:01:46;6.90;99.90
56076;DHT22;41951;49.022;12.066;2023-04-15T09:04:13;6.80;99.90
56076;DHT22;41951;49.022;12.066;2023-04-15T09:06:39;6.80;99.90
56076;DHT22;41951;49.022;12.066;2023-04-15T09:09:05;6.90;99.90
56076;DHT22;41951;49.022;12.066;2023-04-15T09:11:30;6.80;99.90
56076;DHT22;41951;49.022;12.066;2023-04-15T09:13:56;6.90;99.90
56076;DHT22;41951;49.022;12.066;2023-04-15T09:16:22;6.90;99.90
56076;DHT22;41951;49.022;12.066;2023-04-15T09:18:48;6.90;99.90
56076;DHT22;41951;49.022;12.066;2023-04-15T09:21:16;6.90;99.90
56076;DHT22;41951;49.022;12.066;2023-04-15T09:23:58;6.90;99.90
56076;DHT22;41951;49.022;12.066;2023-04-15T09:26:37;7.00;99.90
56076;DHT22;41951;49.022;12.066;2023-04-15T09:29:09;6.90;99.90
56076;DHT22;41951;49.022;12.066;2023-04-15T09:31:36;6.90;99.90
56076;DHT22;41951;49.022;12.066;2023-04-15T09:34:02;6.90;99.90
56076;DHT22;41951;49.022;12.066;2023-04-15T09:36:28;6.90;99.90
56076;DHT22;41951;49.022;12.066;2023-04-15T09:38:56;6.80;99.90
56076;DHT22;41951;49.022;12.066;2023-04-15T09:41:22;6.90;99.90
56076;DHT22;41951;49.022;12.066;2023-04-15T09:43:47;6.90;99.90
56076;DHT22;41951;49.022;12.066;2023-04-15T09:46:13;6.90;99.90
56076;DHT22;41951;49.022;12.066;2023-04-15T09:48:39;6.90;99.90
56076;DHT22;41951;49.022;12.066;2023-04-15T09:51:04;6.90;99.90
56076;DHT22;41951;49.022;12.066;2023-04-15T09:53:33;6.90;99.90
56076;DHT22;41951;49.022;12.066;2023-04-15T09:55:59;6.90;99.90
56076;DHT22;41951;49.022;12.066;2023-04-15T09:58:32;7.00;99.90
56076;DHT22;41951;49.022;12.066;2023-04-15T10:01:02;7.00;99.90
56076;DHT22;41951;49.022;12.066;2023-04-15T10:03:34;7.00;99.90
56076;DHT22;41951;49.022;12.066;2023-04-15T10:06:01;7.00;99.90
56076;DHT22;41951;49.022;12.066;2023-04-15T10:08:29;7.00;99.90
56076;DHT22;41951;49.022;12.066;2023-04-15T10:10:55;7.10;99.90
56076;DHT22;41951;49.022;12.066;2023-04-15T10:13:25;7.20;99.90
56076;DHT22;41951;49.022;12.066;2023-04-15T10:16:10;7.10;99.90
56076;DHT22;41951;49.022;12.066;2023-04-15T10:18:41;7.10;99.90
56076;DHT22;41951;49.022;12.066;2023-04-15T10:21:07;7.10;99.90
56076;DHT22;41951;49.022;12.066;2023-04-15T10:23:33;7.20;99.90
56076;DHT22;41951;49.022;12.066;2023-04-15T10:25:59;7.30;99.90
56076;DHT22;41951;49.022;12.066;2023-04-15T10:28:26;7.30;99.90
56076;DHT22;41951;49.022;12.066;2023-04-15T10:30:52;7.40;99.90
56076;DHT22;41951;49.022;12.066;2023-04-15T10:33:21;7.40;99.90
56076;DHT22;41951;49.022;12.066;2023-04-15T10:35:48;7.50;99.90
56076;DHT22;41951;49.022;12.066;2023-04-15T10:38:33;7.60;99.90
56076;DHT22;41951;49.022;12.066;2023-04-15T10:41:24;7.50;99.90
56076;DHT22;41951;49.022;12.066;2023-04-15T10:46:40;7.60;99.90
56076;DHT22;41951;49.022;12.066;2023-04-15T10:49:16;7.70;99.90
56076;DHT22;41951;49.022;12.066;2023-04-15T10:51:56;7.90;99.90
56076;DHT22;41951;49.022;12.066;2023-04-15T10:57:05;8.20;99.90
56076;DHT22;41951;49.022;12.066;2023-04-15T10:59:33;8.30;99.90
56076;DHT22;41951;49.022;12.066;2023-04-15T11:02:02;8.60;99.90
56076;DHT22;41951;49.022;12.066;2023-04-15T11:10:00;8.70;99.90
56076;DHT22;41951;49.022;12.066;2023-04-15T11:12:34;8.70;99.90
56076;DHT22;41951;49.022;12.066;2023-04-15T11:17:56;8.50;99.90
56076;DHT22;41951;49.022;12.066;2023-04-15T11:20:23;8.50;99.90
56076;DHT22;41951;49.022;12.066;2023-04-15T11:22:50;8.50;99.90
56076;DHT22;41951;49.022;12.066;2023-04-15T11:25:30;8.50;99.90
56076;DHT22;41951;49.022;12.066;2023-04-15T11:27:56;8.40;99.90
56076;DHT22;41951;49.022;12.066;2023-04-15T11:30:33;8.40;99.90
56076;DHT22;41951;49.022;12.066;2023-04-15T11:33:01;8.50;99.90
56076;DHT22;41951;49.022;12.066;2023-04-15T11:35:27;8.50;99.90
56076;DHT22;41951;49.022;12.066;2023-04-15T11:37:53;8.50;99.90
56076;DHT22;41951;49.022;12.066;2023-04-15T11:40:24;8.50;99.90
56076;DHT22;41951;49.022;12.066;2023-04-15T11:45:30;8.50;99.90
56076;DHT22;41951;49.022;12.066;2023-04-15T11:48:07;8.50;99.90
56076;DHT22;41951;49.022;12.066;2023-04-15T11:50:34;8.60;99.90
56076;DHT22;41951;49.022;12.066;2023-04-15T11:53:02;8.60;99.90
56076;DHT22;41951;49.022;12.066;2023-04-15T11:55:29;8.70;99.90
56076;DHT22;41951;49.022;12.066;2023-04-15T11:58:20;8.80;99.90
56076;DHT22;41951;49.022;12.066;2023-04-15T12:00:57;8.90;99.90
56076;DHT22;41951;49.022;12.066;2023-04-15T12:03:27;8.90;99.90
56076;DHT22;41951;49.022;12.066;2023-04-15T12:08:50;8.90;99.90
56076;DHT22;41951;49.022;12.066;2023-04-15T12:11:26;8.90;99.90
56076;DHT22;41951;49.022;12.066;2023-04-15T12:13:57;8.90;99.90
56076;DHT22;41951;49.022;12.066;2023-04-15T12:16:23;8.80;99.90
56076;DHT22;41951;49.022;12.066;2023-04-15T12:18:58;8.80;99.90
56076;DHT22;41951;49.022;12.066;2023-04-15T12:21:25;8.70;99.90
56076;DHT22;41951;49.022;12.066;2023-04-15T12:23:55;8.70;99.90
56076;DHT22;41951;49.022;12.066;2023-04-15T12:29:06;8.70;99.90
56076;DHT22;41951;49.022;12.066;2023-04-15T12:31:36;8.60;99.90
56076;DHT22;41951;49.022;12.066;2023-04-15T12:34:03;8.70;99.90
56076;DHT22;41951;49.022;12.066;2023-04-15T12:36:31;8.60;99.90
56076;DHT22;41951;49.022;12.066;2023-04-15T12:39:02;8.60;99.90
56076;DHT22;41951;49.022;12.066;2023-04-15T12:41:28;8.50;99.90
56076;DHT22;41951;49.022;12.066;2023-04-15T12:43:53;8.50;99.90
56076;DHT22;41951;49.022;12.066;2023-04-15T12:46:19;8.40;99.90
56076;DHT22;41951;49.022;12.066;2023-04-15T12:48:46;8.30;99.90
56076;DHT22;41951;49.022;12.066;2023-04-15T12:51:12;8.30;99.90
56076;DHT22;41951;49.022;12.066;2023-04-15T12:53:38;8.30;99.90
56076;DHT22;41951;49.022;12.066;2023-04-15T12:56:03;8.30;99.90
56076;DHT22;41951;49.022;12.066;2023-04-15T12:58:29;8.30;99.90
56076;DHT22;41951;49.022;12.066;2023-04-15T13:00:55;8.20;99.90
56076;DHT22;41951;49.022;12.066;2023-04-15T13:03:21;8.10;99.90
56076;DHT22;41951;49.022;12.066;2023-04-15T13:05:47;8.20;99.90
56076;DHT22;41951;49.022;12.066;2023-04-15T13:08:12;8.10;99.90
56076;DHT22;41951;49.022;12.066;2023-04-15T13:10:38;8.10;99.90
56076;DHT22;41951;49.022;12.066;2023-04-15T13:13:04;8.20;99.90
56076;DHT22;41951;49.022;12.066;2023-04-15T13:15:30;7.80;99.90
56076;DHT22;41951;49.022;12.066;2023-04-15T13:17:56;8.10;99.90
56076;DHT22;41951;49.022;12.066;2023-04-15T13:20:21;8.10;99.90
56076;DHT22;41951;49.022;12.066;2023-04-15T13:22:47;8.20;99.90
56076;DHT22;41951;49.022;12.066;2023-04-15T13:25:12;8.20;99.90
56076;DHT22;41951;49.022;12.066;2023-04-15T13:27:38;8.20;99.90
56076;DHT22;41951;49.022;12.066;2023-04-15T13:30:05;8.20;99.90
56076;DHT22;41951;49.022;12.066;2023-04-15T13:32:30;8.20;99.90
56076;DHT22;41951;49.022;12.066;2023-04-15T13:34:56;8.20;99.90
56076;DHT22;41951;49.022;12.066;2023-04-15T13:37:26;8.20;99.90
56076;DHT22;41951;49.022;12.066;2023-04-15T13:39:53;8.20;99.90
56076;DHT22;41951;49.022;12.066;2023-04-15T13:42:19;8.20;99.90
56076;DHT22;41951;49.022;12.066;2023-04-15T13:44:44;8.20;99.90
56076;DHT22;41951;49.022;12.066;2023-04-15T13:47:10;8.10;99.90
56076;DHT22;41951;49.022;12.066;2023-04-15T13:49:36;8.10;99.90
56076;DHT22;41951;49.022;12.066;2023-04-15T13:52:01;8.10;99.90
56076;DHT22;41951;49.022;12.066;2023-04-15T13:54:27;8.10;99.90
56076;DHT22;41951;49.022;12.066;2023-04-15T13:56:54;8.10;99.90
56076;DHT22;41951;49.022;12.066;2023-04-15T13:59:21;8.20;99.90
56076;DHT22;41951;49.022;12.066;2023-04-15T14:01:47;8.20;99.90
56076;DHT22;41951;49.022;12.066;2023-04-15T14:04:12;8.10;99.90
56076;DHT22;41951;49.022;12.066;2023-04-15T14:06:38;8.10;99.90
56076;DHT22;41951;49.022;12.066;2023-04-15T14:09:03;8.10;99.90
56076;DHT22;41951;49.022;12.066;2023-04-15T14:11:29;8.10;99.90
56076;DHT22;41951;49.022;12.066;2023-04-15T14:13:54;8.20;99.90
56076;DHT22;41951;49.022;12.066;2023-04-15T14:16:20;8.20;99.90
56076;DHT22;41951;49.022;12.066;2023-04-15T14:18:46;8.20;99.90
56076;DHT22;41951;49.022;12.066;2023-04-15T14:21:11;8.20;99.90
56076;DHT22;41951;49.022;12.066;2023-04-15T14:23:37;8.20;99.90
56076;DHT22;41951;49.022;12.066;2023-04-15T14:26:03;8.10;99.90
56076;DHT22;41951;49.022;12.066;2023-04-15T14:28:28;8.10;99.90
56076;DHT22;41951;49.022;12.066;2023-04-15T14:30:54;8.10;99.90
56076;DHT22;41951;49.022;12.066;2023-04-15T14:33:19;8.00;99.90
56076;DHT22;41951;49.022;12.066;2023-04-15T14:35:45;8.10;99.90
56076;DHT22;41951;49.022;12.066;2023-04-15T14:38:11;8.10;99.90
56076;DHT22;41951;49.022;12.066;2023-04-15T14:40:36;8.10;99.90
56076;DHT22;41951;49.022;12.066;2023-04-15T14:43:02;8.00;99.90
56076;DHT22;41951;49.022;12.066;2023-04-15T14:45:29;8.10;99.90
56076;DHT22;41951;49.022;12.066;2023-04-15T14:47:55;8.20;99.90
56076;DHT22;41951;49.022;12.066;2023-04-15T14:50:21;8.10;99.90
56076;DHT22;41951;49.022;12.066;2023-04-15T14:52:46;8.10;99.90
56076;DHT22;41951;49.022;12.066;2023-04-15T14:55:12;8.20;99.90
56076;DHT22;41951;49.022;12.066;2023-04-15T14:57:39;8.20;99.90
56076;DHT22;41951;49.022;12.066;2023-04-15T15:00:06;8.30;99.90
56076;DHT22;41951;49.022;12.066;2023-04-15T15:02:34;8.30;99.90
56076;DHT22;41951;49.022;12.066;2023-04-15T15:05:01;8.30;99.90
56076;DHT22;41951;49.022;12.066;2023-04-15T15:07:27;8.40;99.90
56076;DHT22;41951;49.022;12.066;2023-04-15T15:09:54;8.40;99.90
56076;DHT22;41951;49.022;12.066;2023-04-15T15:12:19;8.40;99.90
56076;DHT22;41951;49.022;12.066;2023-04-15T15:14:46;8.30;99.90
56076;DHT22;41951;49.022;12.066;2023-04-15T15:17:13;8.30;99.90
56076;DHT22;41951;49.022;12.066;2023-04-15T15:19:39;8.30;99.90
56076;DHT22;41951;49.022;12.066;2023-04-15T15:22:04;8.30;99.90
56076;DHT22;41951;49.022;12.066;2023-04-15T15:24:30;8.40;99.90
56076;DHT22;41951;49.022;12.066;2023-04-15T15:26:56;8.40;99.90
56076;DHT22;41951;49.022;12.066;2023-04-15T15:29:22;8.40;99.90
56076;DHT22;41951;49.022;12.066;2023-04-15T15:31:48;8.40;99.90
56076;DHT22;41951;49.022;12.066;2023-04-15T15:34:15;8.30;99.90
56076;DHT22;41951;49.022;12.066;2023-04-15T15:36:41;8.30;99.90
56076;DHT22;41951;49.022;12.066;2023-04-15T15:39:06;8.30;99.90
56076;DHT22;41951;49.022;12.066;2023-04-15T15:41:32;8.30;99.90
56076;DHT22;41951;49.022;12.066;2023-04-15T15:43:57;8.30;99.90
56076;DHT22;41951;49.022;12.066;2023-04-15T15:46:23;8.30;99.90
56076;DHT22;41951;49.022;12.066;2023-04-15T15:48:50;8.30;99.90